createdAt,value
2019-03-03T00:00:48.582Z,24.87
2019-03-03T00:03:16.669Z,24.57
2019-03-03T00:05:44.806Z,24.33
2019-03-03T00:08:12.811Z,25.53
2019-03-03T00:10:40.830Z,24.97
2019-03-03T00:13:08.874Z,25.80
2019-03-03T00:15:36.951Z,25.17
2019-03-03T00:18:05.019Z,26.53
2019-03-03T00:20:32.994Z,24.63
2019-03-03T00:23:01.024Z,26.43
2019-03-03T00:25:29.444Z,25.20
2019-03-03T00:27:57.626Z,26.20
2019-03-03T00:30:25.609Z,24.40
2019-03-03T00:32:53.695Z,27.50
2019-03-03T00:35:21.828Z,26.50
2019-03-03T00:38:00.431Z,26.30
2019-03-03T00:40:59.604Z,26.27
2019-03-03T00:43:49.416Z,26.77
2019-03-03T00:46:42.162Z,25.57
2019-03-03T00:49:30.020Z,24.83
2019-03-03T00:52:05.750Z,26.07
2019-03-03T00:54:51.372Z,25.73
2019-03-03T00:57:26.714Z,26.37
2019-03-03T01:00:04.723Z,25.00
2019-03-03T01:03:04.006Z,25.67
2019-03-03T01:05:49.615Z,27.57
2019-03-03T01:08:35.813Z,28.00
2019-03-03T01:11:28.626Z,27.97
2019-03-03T01:14:21.690Z,28.93
2019-03-03T01:17:20.990Z,28.47
2019-03-03T01:20:08.022Z,27.53
2019-03-03T01:22:48.606Z,28.53
2019-03-03T01:25:16.736Z,27.17
2019-03-03T01:27:44.709Z,28.63
2019-03-03T01:30:13.297Z,28.17
2019-03-03T01:32:41.625Z,29.80
2019-03-03T01:35:09.706Z,29.67
2019-03-03T01:37:37.803Z,29.97
2019-03-03T01:40:06.100Z,32.27
2019-03-03T01:42:34.224Z,30.97
2019-03-03T01:45:02.249Z,31.17
2019-03-03T01:47:30.317Z,31.47
2019-03-03T01:49:58.335Z,30.47
2019-03-03T01:52:26.463Z,30.37
2019-03-03T01:54:54.574Z,30.97
2019-03-03T01:57:22.623Z,31.20
2019-03-03T01:59:50.610Z,33.13
2019-03-03T02:02:18.663Z,32.07
2019-03-03T02:04:46.795Z,32.60
2019-03-03T02:07:14.811Z,33.23
2019-03-03T02:09:42.799Z,31.30
2019-03-03T02:12:10.800Z,32.70
2019-03-03T02:14:38.795Z,34.27
2019-03-03T02:17:08.399Z,33.97
2019-03-03T02:19:36.533Z,33.43
2019-03-03T02:22:04.555Z,33.03
2019-03-03T02:24:32.668Z,33.90
2019-03-03T02:27:00.807Z,36.50
2019-03-03T02:29:28.871Z,33.67
2019-03-03T02:31:56.935Z,34.40
2019-03-03T02:34:24.991Z,34.37
2019-03-03T02:36:53.087Z,34.97
2019-03-03T02:39:21.256Z,34.70
2019-03-03T02:41:49.249Z,35.00
2019-03-03T02:44:17.478Z,35.37
2019-03-03T02:46:45.412Z,35.43
2019-03-03T02:49:13.444Z,33.63
2019-03-03T02:51:41.485Z,33.67
2019-03-03T02:54:12.269Z,33.83
2019-03-03T02:56:40.262Z,36.03
2019-03-03T02:59:08.301Z,36.27
2019-03-03T03:01:43.911Z,34.53
2019-03-03T03:04:11.945Z,33.47
2019-03-03T03:06:58.981Z,33.90
2019-03-03T03:09:29.957Z,35.67
2019-03-03T03:12:03.394Z,35.33
2019-03-03T03:14:36.521Z,34.43
2019-03-03T03:17:14.468Z,32.77
2019-03-03T03:20:07.315Z,32.37
2019-03-03T03:22:44.973Z,34.20
2019-03-03T03:25:31.956Z,33.17
2019-03-03T03:28:19.046Z,33.30
2019-03-03T03:31:04.826Z,32.67
2019-03-03T03:33:51.861Z,33.07
2019-03-03T03:36:32.587Z,33.90
2019-03-03T03:39:34.801Z,32.70
2019-03-03T03:42:27.766Z,33.47
2019-03-03T03:45:14.376Z,33.90
2019-03-03T03:48:06.068Z,34.23
2019-03-03T03:50:51.554Z,34.07
2019-03-03T03:53:35.893Z,30.93
2019-03-03T03:56:28.194Z,31.43
2019-03-03T03:59:33.382Z,30.00
2019-03-03T04:02:19.170Z,28.37
2019-03-03T04:05:24.066Z,28.10
2019-03-03T04:07:59.309Z,27.57
2019-03-03T04:10:33.162Z,29.30
2019-03-03T04:13:20.143Z,27.53
2019-03-03T04:16:12.332Z,26.67
2019-03-03T04:19:02.379Z,27.00
2019-03-03T04:21:45.233Z,28.00
2019-03-03T04:24:36.989Z,23.90
2019-03-03T04:27:27.047Z,24.57
2019-03-03T04:30:09.045Z,25.57
2019-03-03T04:32:56.087Z,22.27
2019-03-03T04:35:41.234Z,23.50
2019-03-03T04:38:42.506Z,23.93
2019-03-03T04:41:28.176Z,22.13
2019-03-03T04:44:19.293Z,21.67
2019-03-03T04:46:55.109Z,21.20
2019-03-03T04:49:39.779Z,20.70
2019-03-03T04:52:23.401Z,21.30
2019-03-03T04:55:11.486Z,20.30
2019-03-03T05:01:01.858Z,21.27
2019-03-03T05:03:50.199Z,18.63
2019-03-03T05:06:30.787Z,18.53
2019-03-03T05:09:17.723Z,16.50
2019-03-03T05:12:24.833Z,17.40
2019-03-03T05:14:54.524Z,15.47
2019-03-03T05:17:41.584Z,17.27
2019-03-03T05:20:09.851Z,16.80
2019-03-03T05:22:38.455Z,17.23
2019-03-03T05:25:06.507Z,16.30
2019-03-03T05:27:34.606Z,15.97
2019-03-03T05:30:02.597Z,15.73
2019-03-03T05:32:30.627Z,16.60
2019-03-03T05:34:58.650Z,15.23
2019-03-03T05:37:26.664Z,15.40
2019-03-03T05:39:54.718Z,15.63
2019-03-03T05:42:24.810Z,13.63
2019-03-03T05:44:52.788Z,14.30
2019-03-03T05:47:20.889Z,14.83
2019-03-03T05:49:48.992Z,15.10
2019-03-03T05:52:19.063Z,13.67
2019-03-03T05:54:47.083Z,13.87
2019-03-03T05:57:15.108Z,14.50
2019-03-03T05:59:43.150Z,14.70
2019-03-03T06:02:11.208Z,14.03
2019-03-03T06:04:39.188Z,14.63
2019-03-03T06:07:08.479Z,13.43
2019-03-03T06:09:44.558Z,12.80
2019-03-03T06:12:12.628Z,13.60
2019-03-03T06:14:40.669Z,11.90
2019-03-03T06:17:08.678Z,11.93
2019-03-03T06:19:36.746Z,11.53
2019-03-03T06:22:04.798Z,11.53
2019-03-03T06:24:32.815Z,11.43
2019-03-03T06:27:01.148Z,10.70
2019-03-03T06:29:29.144Z,12.10
2019-03-03T06:31:57.287Z,9.77
2019-03-03T06:34:25.616Z,10.47
2019-03-03T06:36:53.596Z,9.60
2019-03-03T06:39:21.576Z,10.17
2019-03-03T06:41:49.569Z,9.87
2019-03-03T06:44:17.564Z,8.47
2019-03-03T06:46:45.597Z,10.57
2019-03-03T06:49:13.575Z,9.03
2019-03-03T06:51:42.636Z,9.13
2019-03-03T06:54:10.660Z,8.43
2019-03-03T06:56:38.664Z,7.17
2019-03-03T06:59:06.669Z,7.87
2019-03-03T07:01:34.668Z,7.40
2019-03-03T07:04:02.655Z,6.70
2019-03-03T07:06:30.685Z,7.47
2019-03-03T07:08:58.713Z,7.00
2019-03-03T07:11:26.774Z,6.67
2019-03-03T07:13:55.665Z,7.03
2019-03-03T07:16:26.413Z,6.77
2019-03-03T07:18:54.553Z,7.30
2019-03-03T07:21:22.627Z,6.27
2019-03-03T07:23:50.772Z,7.17
2019-03-03T07:26:18.774Z,6.13
2019-03-03T07:28:47.883Z,6.75
2019-03-03T07:31:15.934Z,6.33
2019-03-03T07:33:47.635Z,5.47
2019-03-03T07:36:15.649Z,5.67
2019-03-03T07:38:43.721Z,5.80
2019-03-03T07:41:11.766Z,5.17
2019-03-03T07:43:39.801Z,5.67
2019-03-03T07:46:08.965Z,6.03
2019-03-03T07:48:38.041Z,5.30
2019-03-03T07:51:06.019Z,6.13
2019-03-03T07:53:34.114Z,5.83
2019-03-03T07:56:02.169Z,5.83
2019-03-03T07:58:30.190Z,5.87
2019-03-03T08:00:59.120Z,6.40
2019-03-03T08:03:27.730Z,5.53
2019-03-03T08:05:56.111Z,5.90
2019-03-03T08:08:24.137Z,5.40
2019-03-03T08:10:52.693Z,4.50
2019-03-03T08:13:20.724Z,5.40
2019-03-03T08:15:48.771Z,4.90
2019-03-03T08:18:16.760Z,4.93
2019-03-03T08:20:44.804Z,5.03
2019-03-03T08:23:12.897Z,5.23
2019-03-03T08:25:41.060Z,5.63
2019-03-03T08:28:09.062Z,4.90
2019-03-03T08:30:37.078Z,5.67
2019-03-03T08:33:05.185Z,5.90
2019-03-03T08:35:33.589Z,4.73
2019-03-03T08:38:02.581Z,5.47
2019-03-03T08:40:30.668Z,4.60
2019-03-03T08:43:04.798Z,5.20
2019-03-03T08:46:03.752Z,5.73
2019-03-03T08:49:02.929Z,5.03
2019-03-03T08:51:53.164Z,4.60
2019-03-03T08:54:29.013Z,5.63
2019-03-03T08:57:26.178Z,5.67
2019-03-03T09:00:04.453Z,5.63
2019-03-03T09:02:51.707Z,5.87
2019-03-03T09:05:50.925Z,4.97
2019-03-03T09:08:33.537Z,5.53
2019-03-03T09:11:33.067Z,4.83
2019-03-03T09:14:08.206Z,5.77
2019-03-03T09:16:48.458Z,5.67
2019-03-03T09:19:37.526Z,4.90
2019-03-03T09:22:13.160Z,5.33
2019-03-03T09:24:51.339Z,5.20
2019-03-03T09:27:57.256Z,5.07
2019-03-03T09:30:56.558Z,4.63
2019-03-03T09:33:41.760Z,4.77
2019-03-03T09:36:33.302Z,4.70
2019-03-03T09:39:35.399Z,4.20
2019-03-03T09:42:25.488Z,4.80
2019-03-03T09:45:09.572Z,5.07
2019-03-03T09:47:55.727Z,5.13
2019-03-03T09:50:45.309Z,5.23
2019-03-03T09:53:32.463Z,5.30
2019-03-03T09:56:21.594Z,5.10
2019-03-03T09:59:09.507Z,5.67
2019-03-03T10:01:55.238Z,4.83
2019-03-03T10:04:35.418Z,4.80
2019-03-03T10:07:22.464Z,4.40
2019-03-03T10:09:53.937Z,4.13
2019-03-03T10:12:37.503Z,4.23
2019-03-03T10:15:39.551Z,4.77
2019-03-03T10:18:27.552Z,5.30
2019-03-03T10:21:03.879Z,4.90
2019-03-03T10:24:00.151Z,4.53
2019-03-03T10:26:45.537Z,4.20
2019-03-03T10:29:30.379Z,3.90
2019-03-03T10:32:13.935Z,4.47
2019-03-03T10:35:01.004Z,4.40
2019-03-03T10:37:50.768Z,4.43
2019-03-03T10:40:56.117Z,4.03
2019-03-03T10:43:52.120Z,5.30
2019-03-03T10:46:42.196Z,5.00
2019-03-03T10:49:15.626Z,5.37
2019-03-03T10:52:08.947Z,5.17
2019-03-03T10:54:46.045Z,7.87
2019-03-03T10:57:42.163Z,4.57
2019-03-03T11:00:33.236Z,5.73
2019-03-03T11:03:26.314Z,7.97
2019-03-03T11:06:13.218Z,6.93
2019-03-03T11:09:06.335Z,5.53
2019-03-03T11:11:43.004Z,4.57
2019-03-03T11:14:33.220Z,7.30
2019-03-03T11:17:19.628Z,4.83
2019-03-03T11:20:05.653Z,5.57
2019-03-03T11:22:44.327Z,4.13
2019-03-03T11:25:46.495Z,5.17
2019-03-03T11:28:30.244Z,5.77
2019-03-03T11:31:05.040Z,4.27
2019-03-03T11:33:52.056Z,4.03
2019-03-03T11:36:45.483Z,4.53
2019-03-03T11:39:28.581Z,4.60
2019-03-03T11:42:22.469Z,4.13
2019-03-03T11:45:06.376Z,4.67
2019-03-03T11:47:51.706Z,5.70
2019-03-03T11:53:27.918Z,6.17
2019-03-03T11:56:03.624Z,4.47
2019-03-03T11:58:43.214Z,5.42
2019-03-03T12:01:40.094Z,4.43
2019-03-03T12:04:28.165Z,5.77
2019-03-03T12:07:07.357Z,4.63
2019-03-03T12:09:53.225Z,5.63
2019-03-03T12:12:33.156Z,5.13
2019-03-03T12:15:26.614Z,5.47
2019-03-03T12:18:10.237Z,4.67
2019-03-03T12:20:57.378Z,4.70
2019-03-03T12:23:48.114Z,5.90
2019-03-03T12:26:32.450Z,4.63
2019-03-03T12:29:38.011Z,5.17
2019-03-03T12:32:34.689Z,5.37
2019-03-03T12:35:25.307Z,5.37
2019-03-03T12:38:18.828Z,4.70
2019-03-03T12:41:12.252Z,5.10
2019-03-03T12:43:48.023Z,5.33
2019-03-03T12:46:25.250Z,5.97
2019-03-03T12:49:12.241Z,6.03
2019-03-03T12:51:57.831Z,5.43
2019-03-03T12:54:47.786Z,5.10
2019-03-03T12:57:34.070Z,4.83
2019-03-03T13:00:27.243Z,5.50
2019-03-03T13:03:20.470Z,5.83
2019-03-03T13:06:24.344Z,4.83
2019-03-03T13:09:14.486Z,4.60
2019-03-03T13:12:01.684Z,4.10
2019-03-03T13:14:47.049Z,4.47
2019-03-03T13:17:24.113Z,5.40
2019-03-03T13:20:19.737Z,5.00
2019-03-03T13:23:09.785Z,4.37
2019-03-03T13:25:56.770Z,4.33
2019-03-03T13:28:41.223Z,4.47
2019-03-03T13:31:37.776Z,4.80
2019-03-03T13:34:27.818Z,4.40
2019-03-03T13:37:13.502Z,4.10
2019-03-03T13:39:59.093Z,4.07
2019-03-03T13:42:42.904Z,5.87
2019-03-03T13:45:11.326Z,4.47
2019-03-03T13:47:40.555Z,5.07
2019-03-03T13:50:11.357Z,4.63
2019-03-03T13:52:40.393Z,3.57
2019-03-03T13:55:09.126Z,3.70
2019-03-03T13:57:37.131Z,3.50
2019-03-03T14:00:05.269Z,4.23
2019-03-03T14:02:33.321Z,4.13
2019-03-03T14:05:01.567Z,3.80
2019-03-03T14:07:32.071Z,4.10
2019-03-03T14:09:59.877Z,3.97
2019-03-03T14:12:27.891Z,3.83
2019-03-03T14:14:55.942Z,4.67
2019-03-03T14:17:24.180Z,4.40
2019-03-03T14:19:52.209Z,4.77
2019-03-03T14:22:20.271Z,5.03
2019-03-03T14:24:48.384Z,4.33
2019-03-03T14:27:16.589Z,4.73
2019-03-03T14:29:44.607Z,5.43
2019-03-03T14:32:15.178Z,4.50
2019-03-03T14:34:43.326Z,4.90
2019-03-03T14:37:11.935Z,7.80
2019-03-03T14:39:40.597Z,6.00
2019-03-03T14:42:11.113Z,4.50
2019-03-03T14:44:40.326Z,5.67
2019-03-03T14:47:08.340Z,5.23
2019-03-03T14:49:36.440Z,4.97
2019-03-03T14:52:04.539Z,5.03
2019-03-03T14:54:32.585Z,5.03
2019-03-03T14:57:00.628Z,5.30
2019-03-03T15:02:39.742Z,5.07
2019-03-03T15:05:07.847Z,5.40
2019-03-03T15:07:35.922Z,5.60
2019-03-03T15:10:03.994Z,5.67
2019-03-03T15:12:32.180Z,6.10
2019-03-03T15:15:00.315Z,6.40
2019-03-03T15:17:28.537Z,6.37
2019-03-03T15:19:56.618Z,6.80
2019-03-03T15:22:24.724Z,7.13
2019-03-03T15:24:52.766Z,6.73
2019-03-03T15:27:20.841Z,6.87
2019-03-03T15:29:48.875Z,7.50
2019-03-03T15:32:23.215Z,7.40
2019-03-03T15:34:54.346Z,7.00
2019-03-03T15:37:27.885Z,7.80
2019-03-03T15:39:58.399Z,13.23
2019-03-03T15:42:27.320Z,8.07
2019-03-03T15:45:01.616Z,9.20
2019-03-03T15:47:28.768Z,8.73
2019-03-03T15:49:57.452Z,8.13
2019-03-03T15:52:28.680Z,9.27
2019-03-03T15:54:57.231Z,9.40
2019-03-03T15:57:27.448Z,9.93
2019-03-03T15:59:55.795Z,9.13
2019-03-03T16:02:24.654Z,8.93
2019-03-03T16:04:53.213Z,7.77
2019-03-03T16:07:21.349Z,9.93
2019-03-03T16:09:54.793Z,9.87
2019-03-03T16:12:22.834Z,8.40
2019-03-03T16:14:51.553Z,10.23
2019-03-03T16:17:20.287Z,8.87
2019-03-03T16:19:48.393Z,9.43
2019-03-03T16:22:16.454Z,8.63
2019-03-03T16:24:47.210Z,9.03
2019-03-03T16:27:15.418Z,8.97
2019-03-03T16:29:44.011Z,8.43
2019-03-03T16:32:12.496Z,8.93
2019-03-03T16:34:40.868Z,8.07
2019-03-03T16:37:09.051Z,8.70
2019-03-03T16:39:37.579Z,9.33
2019-03-03T16:42:05.805Z,8.93
2019-03-03T16:44:34.074Z,8.23
2019-03-03T16:47:08.191Z,7.93
2019-03-03T16:49:36.348Z,8.20
2019-03-03T16:52:04.609Z,9.60
2019-03-03T16:54:32.770Z,8.47
2019-03-03T16:57:01.058Z,12.13
2019-03-03T16:59:29.371Z,9.83
2019-03-03T17:01:57.443Z,8.60
2019-03-03T17:04:25.745Z,8.73
2019-03-03T17:06:59.188Z,9.97
2019-03-03T17:09:30.532Z,8.13
2019-03-03T17:11:58.786Z,8.77
2019-03-03T17:14:26.905Z,9.87
2019-03-03T17:16:55.523Z,9.00
2019-03-03T17:19:23.654Z,7.63
2019-03-03T17:21:51.767Z,8.17
2019-03-03T17:24:20.051Z,8.53
2019-03-03T17:26:48.193Z,8.43
2019-03-03T17:29:16.330Z,8.27
2019-03-03T17:31:47.568Z,9.37
2019-03-03T17:34:15.786Z,7.50
2019-03-03T17:36:43.863Z,8.07
2019-03-03T17:39:20.639Z,8.43
2019-03-03T17:41:48.893Z,8.80
2019-03-03T17:44:17.866Z,7.83
2019-03-03T17:46:45.971Z,7.73
2019-03-03T17:49:14.118Z,8.50
2019-03-03T17:51:42.208Z,7.87
2019-03-03T17:54:10.138Z,7.80
2019-03-03T17:56:38.082Z,7.53
2019-03-03T17:59:06.018Z,7.53
2019-03-03T18:01:33.974Z,7.97
2019-03-03T18:04:21.021Z,7.67
2019-03-03T18:06:48.992Z,7.43
2019-03-03T18:09:16.944Z,7.50
2019-03-03T18:11:44.889Z,7.53
2019-03-03T18:14:12.858Z,7.60
2019-03-03T18:16:40.803Z,7.53
2019-03-03T18:19:08.775Z,9.30
2019-03-03T18:21:36.728Z,7.85
2019-03-03T18:24:04.670Z,7.53
2019-03-03T18:26:32.908Z,7.57
2019-03-03T18:29:00.963Z,7.97
2019-03-03T18:31:28.905Z,7.47
2019-03-03T18:33:56.896Z,7.03
2019-03-03T18:36:25.042Z,7.03
2019-03-03T18:38:53.006Z,7.77
2019-03-03T18:41:20.970Z,7.63
2019-03-03T18:43:48.955Z,7.20
2019-03-03T18:46:16.888Z,6.70
2019-03-03T18:48:44.894Z,6.57
2019-03-03T18:51:12.802Z,6.60
2019-03-03T18:53:40.798Z,6.10
2019-03-03T18:56:08.743Z,6.67
2019-03-03T18:58:36.691Z,6.90
2019-03-03T19:01:05.044Z,6.53
2019-03-03T19:03:33.014Z,6.60
2019-03-03T19:06:00.964Z,6.50
2019-03-03T19:08:30.442Z,5.70
2019-03-03T19:10:58.545Z,6.60
2019-03-03T19:13:26.437Z,5.90
2019-03-03T19:15:54.385Z,5.53
2019-03-03T19:18:22.337Z,6.73
2019-03-03T19:20:50.286Z,6.60
2019-03-03T19:23:19.118Z,5.43
2019-03-03T19:25:47.143Z,6.80
2019-03-03T19:28:15.049Z,6.40
2019-03-03T19:30:42.992Z,5.83
2019-03-03T19:33:12.760Z,5.80
2019-03-03T19:35:40.749Z,6.17
2019-03-03T19:38:08.663Z,5.80
2019-03-03T19:40:36.593Z,5.33
2019-03-03T19:43:10.657Z,5.20
2019-03-03T19:45:39.281Z,5.63
2019-03-03T19:48:07.218Z,6.00
2019-03-03T19:50:35.152Z,6.57
2019-03-03T19:53:03.243Z,6.13
2019-03-03T19:55:31.197Z,5.10
2019-03-03T19:57:59.285Z,5.33
2019-03-03T20:00:35.425Z,5.17
2019-03-03T20:03:10.537Z,6.43
2019-03-03T20:05:38.473Z,6.57
2019-03-03T20:08:10.486Z,4.93
2019-03-03T20:10:45.424Z,4.53
2019-03-03T20:13:13.573Z,5.13
2019-03-03T20:15:44.916Z,4.17
2019-03-03T20:18:13.083Z,4.63
2019-03-03T20:20:41.012Z,4.60
2019-03-03T20:23:08.970Z,4.23
2019-03-03T20:25:38.344Z,4.70
2019-03-03T20:28:06.307Z,5.47
2019-03-03T20:30:34.254Z,5.57
2019-03-03T20:33:02.154Z,5.00
2019-03-03T20:35:30.151Z,5.10
2019-03-03T20:37:59.060Z,5.00
2019-03-03T20:40:27.166Z,4.70
2019-03-03T20:42:55.884Z,4.27
2019-03-03T20:45:24.530Z,5.67
2019-03-03T20:47:52.413Z,4.43
2019-03-03T20:50:20.475Z,5.27
2019-03-03T20:52:48.381Z,5.37
2019-03-03T20:55:17.487Z,5.20
2019-03-03T20:57:45.599Z,5.27
2019-03-03T21:00:15.234Z,4.83
2019-03-03T21:02:43.165Z,4.30
2019-03-03T21:05:11.648Z,4.67
2019-03-03T21:07:39.803Z,4.90
2019-03-03T21:10:08.326Z,4.37
2019-03-03T21:12:37.100Z,4.53
2019-03-03T21:15:05.243Z,4.20
2019-03-03T21:17:33.225Z,4.93
2019-03-03T21:20:01.207Z,4.37
2019-03-03T21:22:29.269Z,4.20
2019-03-03T21:24:57.305Z,4.13
2019-03-03T21:27:25.318Z,4.00
2019-03-03T21:29:59.727Z,4.03
2019-03-03T21:32:27.779Z,4.93
2019-03-03T21:34:55.853Z,4.23
2019-03-03T21:37:25.012Z,4.30
2019-03-03T21:39:52.934Z,4.07
2019-03-03T21:42:20.953Z,4.77
2019-03-03T21:44:50.444Z,4.40
2019-03-03T21:47:19.752Z,4.03
2019-03-03T21:49:47.708Z,3.80
2019-03-03T21:52:15.634Z,4.67
2019-03-03T21:54:43.613Z,4.90
2019-03-03T21:57:11.605Z,4.63
2019-03-03T21:59:39.618Z,4.23
2019-03-03T22:02:08.646Z,5.20
2019-03-03T22:04:37.849Z,4.97
2019-03-03T22:07:05.857Z,4.20
2019-03-03T22:09:33.818Z,4.67
2019-03-03T22:12:01.738Z,4.70
2019-03-03T22:14:29.999Z,4.13
2019-03-03T22:16:57.930Z,5.00
2019-03-03T22:19:25.910Z,4.00
2019-03-03T22:21:53.846Z,4.80
2019-03-03T22:24:21.797Z,4.83
2019-03-03T22:26:49.764Z,4.77
2019-03-03T22:29:17.778Z,4.43
2019-03-03T22:31:45.728Z,4.90
2019-03-03T22:34:13.717Z,4.70
2019-03-03T22:36:41.620Z,4.70
2019-03-03T22:39:10.782Z,4.90
2019-03-03T22:41:38.872Z,4.70
2019-03-03T22:44:06.903Z,4.80
2019-03-03T22:46:35.477Z,5.43
2019-03-03T22:49:03.620Z,4.50
2019-03-03T22:51:31.589Z,4.37
2019-03-03T22:53:59.520Z,4.43
2019-03-03T22:56:27.490Z,4.97
2019-03-03T22:58:55.670Z,4.33
2019-03-03T23:01:27.985Z,3.90
2019-03-03T23:04:01.543Z,4.63
2019-03-03T23:06:34.469Z,4.50
2019-03-03T23:09:15.215Z,4.03
2019-03-03T23:11:58.222Z,4.13
2019-03-03T23:14:34.138Z,4.67
2019-03-03T23:17:24.244Z,4.43
2019-03-03T23:20:26.277Z,5.03
2019-03-03T23:23:16.223Z,4.00
2019-03-03T23:25:53.268Z,4.10
2019-03-03T23:28:21.705Z,4.47
2019-03-03T23:30:49.913Z,4.13
2019-03-03T23:33:18.130Z,4.10
2019-03-03T23:35:46.097Z,4.20
2019-03-03T23:38:14.032Z,4.27
2019-03-03T23:40:41.954Z,3.53
2019-03-03T23:43:09.937Z,4.80
2019-03-03T23:45:37.822Z,4.27
2019-03-03T23:48:05.773Z,4.97
2019-03-03T23:50:33.730Z,3.80
2019-03-03T23:53:01.715Z,4.33
2019-03-03T23:55:29.718Z,3.73
2019-03-03T23:57:57.662Z,4.37
